KAPC/APC METAR and TAF weather

Enter ICAO airport designator
Station Type Date Time Source
KAPC METAR 2024/06/15 23:54 UTC NOAA

KAPC 152354Z 20015KT 10SM CLR 27/11 A2989 RMK AO2 SLP113 T02670106 10278 20217 56021


Station Type Date Time Source
KAPC Decoded METAR 2024/06/15 23:54 UTC NOAA

NAPA COUNTY AIRPORT, CA, United States (KAPC) 38-12N 122-17W 13M
Jun 15, 2024 - 07:54 PM EDT / 2024.06.15 2354 UTC
Wind: from the SSW (200 degrees) at 17 MPH (15 KT):0
Visibility: 10 mile(s):0
Sky conditions: clear
Temperature: 80.1 F (26.7 C)
Dew Point: 51.1 F (10.6 C)
Relative Humidity: 36%
Pressure (altimeter): 29.89 in. Hg (1012 hPa)
Pressure tendency: 0.06 inches (2.1 hPa) lower than three hours ago
ob: KAPC 152354Z 20015KT 10SM CLR 27/11 A2989 RMK AO2 SLP113 T02670106 10278 20217 56021
cycle: 0

Station Type Date Time Source
KAPC TAF 2024/06/15 18:30 UTC NOAA